sensor_id;sensor_type;location;lat;lon;timestamp;P1;durP1;ratioP1;P2;durP2;ratioP2
73859;SDS011;62197;51.632;13.700;2023-12-04T00:01:47;32.30;;;12.57;;
73859;SDS011;62197;51.632;13.700;2023-12-04T00:04:12;41.50;;;13.60;;
73859;SDS011;62197;51.632;13.700;2023-12-04T00:06:38;30.23;;;12.35;;
73859;SDS011;62197;51.632;13.700;2023-12-04T00:09:03;32.20;;;14.30;;
73859;SDS011;62197;51.632;13.700;2023-12-04T00:11:29;31.02;;;14.00;;
73859;SDS011;62197;51.632;13.700;2023-12-04T00:13:54;28.33;;;11.50;;
73859;SDS011;62197;51.632;13.700;2023-12-04T00:16:19;32.17;;;12.98;;
73859;SDS011;62197;51.632;13.700;2023-12-04T00:18:45;29.95;;;11.80;;
73859;SDS011;62197;51.632;13.700;2023-12-04T00:21:10;28.85;;;12.55;;
73859;SDS011;62197;51.632;13.700;2023-12-04T00:23:35;30.02;;;12.77;;
73859;SDS011;62197;51.632;13.700;2023-12-04T00:26:01;30.15;;;12.30;;
73859;SDS011;62197;51.632;13.700;2023-12-04T00:30:53;30.73;;;12.77;;
73859;SDS011;62197;51.632;13.700;2023-12-04T00:33:19;34.30;;;12.50;;
73859;SDS011;62197;51.632;13.700;2023-12-04T00:35:44;27.80;;;12.63;;
73859;SDS011;62197;51.632;13.700;2023-12-04T00:38:09;37.58;;;12.13;;
73859;SDS011;62197;51.632;13.700;2023-12-04T00:40:35;31.75;;;11.77;;
73859;SDS011;62197;51.632;13.700;2023-12-04T00:43:00;39.58;;;13.57;;
73859;SDS011;62197;51.632;13.700;2023-12-04T00:45:25;35.78;;;13.35;;
73859;SDS011;62197;51.632;13.700;2023-12-04T00:47:51;31.67;;;12.05;;
73859;SDS011;62197;51.632;13.700;2023-12-04T00:50:16;30.27;;;12.35;;
73859;SDS011;62197;51.632;13.700;2023-12-04T00:52:42;30.38;;;12.20;;
73859;SDS011;62197;51.632;13.700;2023-12-04T00:55:07;36.58;;;12.18;;
73859;SDS011;62197;51.632;13.700;2023-12-04T00:57:33;32.47;;;12.52;;
73859;SDS011;62197;51.632;13.700;2023-12-04T00:59:58;32.08;;;12.50;;
73859;SDS011;62197;51.632;13.700;2023-12-04T01:02:23;26.63;;;11.10;;
73859;SDS011;62197;51.632;13.700;2023-12-04T01:04:49;27.98;;;12.00;;
73859;SDS011;62197;51.632;13.700;2023-12-04T01:07:14;23.42;;;11.68;;
73859;SDS011;62197;51.632;13.700;2023-12-04T01:09:40;37.28;;;14.00;;
73859;SDS011;62197;51.632;13.700;2023-12-04T01:12:05;27.17;;;11.05;;
73859;SDS011;62197;51.632;13.700;2023-12-04T01:14:31;30.17;;;11.73;;
73859;SDS011;62197;51.632;13.700;2023-12-04T01:16:57;39.58;;;13.02;;
73859;SDS011;62197;51.632;13.700;2023-12-04T01:19:23;37.22;;;13.38;;
73859;SDS011;62197;51.632;13.700;2023-12-04T01:21:48;37.47;;;12.85;;
73859;SDS011;62197;51.632;13.700;2023-12-04T01:24:14;30.05;;;11.70;;
73859;SDS011;62197;51.632;13.700;2023-12-04T01:26:40;26.52;;;9.85;;
73859;SDS011;62197;51.632;13.700;2023-12-04T01:29:05;28.10;;;12.52;;
73859;SDS011;62197;51.632;13.700;2023-12-04T01:31:31;33.47;;;13.38;;
73859;SDS011;62197;51.632;13.700;2023-12-04T01:33:56;28.95;;;11.50;;
73859;SDS011;62197;51.632;13.700;2023-12-04T01:36:22;27.13;;;11.63;;
73859;SDS011;62197;51.632;13.700;2023-12-04T01:38:47;27.55;;;11.13;;
73859;SDS011;62197;51.632;13.700;2023-12-04T01:41:12;32.95;;;14.43;;
73859;SDS011;62197;51.632;13.700;2023-12-04T01:43:38;27.50;;;11.38;;
73859;SDS011;62197;51.632;13.700;2023-12-04T01:46:03;32.65;;;12.50;;
73859;SDS011;62197;51.632;13.700;2023-12-04T01:48:29;32.88;;;12.38;;
73859;SDS011;62197;51.632;13.700;2023-12-04T01:50:55;32.67;;;13.52;;
73859;SDS011;62197;51.632;13.700;2023-12-04T01:53:22;31.67;;;12.75;;
73859;SDS011;62197;51.632;13.700;2023-12-04T01:55:48;31.52;;;12.55;;
73859;SDS011;62197;51.632;13.700;2023-12-04T01:58:14;29.60;;;11.80;;
73859;SDS011;62197;51.632;13.700;2023-12-04T02:00:39;37.08;;;11.95;;
73859;SDS011;62197;51.632;13.700;2023-12-04T02:03:05;30.00;;;11.93;;
73859;SDS011;62197;51.632;13.700;2023-12-04T02:05:31;35.00;;;13.65;;
73859;SDS011;62197;51.632;13.700;2023-12-04T02:07:57;31.45;;;12.68;;
73859;SDS011;62197;51.632;13.700;2023-12-04T02:10:22;33.33;;;13.27;;
73859;SDS011;62197;51.632;13.700;2023-12-04T02:12:48;35.33;;;12.88;;
73859;SDS011;62197;51.632;13.700;2023-12-04T02:15:14;30.45;;;12.27;;
73859;SDS011;62197;51.632;13.700;2023-12-04T02:17:40;25.45;;;11.65;;
73859;SDS011;62197;51.632;13.700;2023-12-04T02:20:06;29.77;;;11.20;;
73859;SDS011;62197;51.632;13.700;2023-12-04T02:22:32;24.30;;;9.13;;
73859;SDS011;62197;51.632;13.700;2023-12-04T02:24:58;25.45;;;10.02;;
73859;SDS011;62197;51.632;13.700;2023-12-04T02:27:26;28.95;;;11.10;;
73859;SDS011;62197;51.632;13.700;2023-12-04T02:30:00;25.83;;;11.25;;
73859;SDS011;62197;51.632;13.700;2023-12-04T02:32:28;30.27;;;10.90;;
73859;SDS011;62197;51.632;13.700;2023-12-04T02:34:55;29.33;;;10.95;;
73859;SDS011;62197;51.632;13.700;2023-12-04T02:37:22;25.88;;;10.30;;
73859;SDS011;62197;51.632;13.700;2023-12-04T02:39:48;25.20;;;11.05;;
73859;SDS011;62197;51.632;13.700;2023-12-04T02:42:17;19.92;;;8.55;;
73859;SDS011;62197;51.632;13.700;2023-12-04T02:44:43;20.88;;;10.20;;
73859;SDS011;62197;51.632;13.700;2023-12-04T02:47:08;19.75;;;9.23;;
73859;SDS011;62197;51.632;13.700;2023-12-04T02:49:33;26.73;;;11.70;;
73859;SDS011;62197;51.632;13.700;2023-12-04T02:51:59;28.88;;;11.88;;
73859;SDS011;62197;51.632;13.700;2023-12-04T02:54:24;25.88;;;9.43;;
73859;SDS011;62197;51.632;13.700;2023-12-04T02:56:50;27.63;;;10.52;;
73859;SDS011;62197;51.632;13.700;2023-12-04T02:59:15;32.45;;;10.55;;
73859;SDS011;62197;51.632;13.700;2023-12-04T03:01:40;29.52;;;12.80;;
73859;SDS011;62197;51.632;13.700;2023-12-04T03:04:06;26.70;;;10.18;;
73859;SDS011;62197;51.632;13.700;2023-12-04T03:06:31;19.38;;;8.95;;
73859;SDS011;62197;51.632;13.700;2023-12-04T03:08:56;22.88;;;10.25;;
73859;SDS011;62197;51.632;13.700;2023-12-04T03:11:24;22.73;;;10.88;;
73859;SDS011;62197;51.632;13.700;2023-12-04T03:13:49;29.63;;;11.35;;
73859;SDS011;62197;51.632;13.700;2023-12-04T03:16:18;24.10;;;9.30;;
73859;SDS011;62197;51.632;13.700;2023-12-04T03:18:43;33.72;;;10.45;;
73859;SDS011;62197;51.632;13.700;2023-12-04T03:21:10;23.75;;;10.25;;
73859;SDS011;62197;51.632;13.700;2023-12-04T03:23:35;21.13;;;8.73;;
73859;SDS011;62197;51.632;13.700;2023-12-04T03:26:01;25.65;;;9.07;;
73859;SDS011;62197;51.632;13.700;2023-12-04T03:28:26;21.20;;;9.63;;
73859;SDS011;62197;51.632;13.700;2023-12-04T03:30:51;31.73;;;10.82;;
73859;SDS011;62197;51.632;13.700;2023-12-04T03:33:17;23.52;;;10.50;;
73859;SDS011;62197;51.632;13.700;2023-12-04T03:35:42;27.13;;;10.65;;
73859;SDS011;62197;51.632;13.700;2023-12-04T03:38:08;21.45;;;9.40;;
73859;SDS011;62197;51.632;13.700;2023-12-04T03:40:33;24.80;;;9.13;;
73859;SDS011;62197;51.632;13.700;2023-12-04T03:42:59;21.58;;;8.93;;
73859;SDS011;62197;51.632;13.700;2023-12-04T03:45:24;21.73;;;9.38;;
73859;SDS011;62197;51.632;13.700;2023-12-04T03:47:50;23.10;;;9.23;;
73859;SDS011;62197;51.632;13.700;2023-12-04T03:50:15;26.92;;;10.68;;
73859;SDS011;62197;51.632;13.700;2023-12-04T03:52:40;20.75;;;7.28;;
73859;SDS011;62197;51.632;13.700;2023-12-04T03:55:07;21.80;;;8.70;;
73859;SDS011;62197;51.632;13.700;2023-12-04T03:57:33;19.75;;;9.05;;
73859;SDS011;62197;51.632;13.700;2023-12-04T03:59:58;21.50;;;9.13;;
73859;SDS011;62197;51.632;13.700;2023-12-04T04:02:23;27.50;;;9.40;;
73859;SDS011;62197;51.632;13.700;2023-12-04T04:04:49;22.85;;;9.32;;
73859;SDS011;62197;51.632;13.700;2023-12-04T04:07:15;29.65;;;9.50;;
73859;SDS011;62197;51.632;13.700;2023-12-04T04:09:41;22.35;;;8.25;;
73859;SDS011;62197;51.632;13.700;2023-12-04T04:12:06;21.67;;;9.88;;
73859;SDS011;62197;51.632;13.700;2023-12-04T04:14:32;24.20;;;9.43;;
73859;SDS011;62197;51.632;13.700;2023-12-04T04:16:57;25.58;;;9.40;;
73859;SDS011;62197;51.632;13.700;2023-12-04T04:19:22;21.25;;;8.75;;
73859;SDS011;62197;51.632;13.700;2023-12-04T04:21:48;20.48;;;9.13;;
73859;SDS011;62197;51.632;13.700;2023-12-04T04:24:13;23.60;;;10.07;;
73859;SDS011;62197;51.632;13.700;2023-12-04T04:26:38;21.05;;;10.77;;
73859;SDS011;62197;51.632;13.700;2023-12-04T04:29:04;14.23;;;6.35;;
73859;SDS011;62197;51.632;13.700;2023-12-04T04:31:29;26.48;;;10.00;;
73859;SDS011;62197;51.632;13.700;2023-12-04T04:33:55;16.80;;;8.30;;
73859;SDS011;62197;51.632;13.700;2023-12-04T04:36:20;17.17;;;7.90;;
73859;SDS011;62197;51.632;13.700;2023-12-04T04:38:45;25.05;;;9.52;;
73859;SDS011;62197;51.632;13.700;2023-12-04T04:41:14;18.33;;;8.40;;
73859;SDS011;62197;51.632;13.700;2023-12-04T04:43:40;21.63;;;8.82;;
73859;SDS011;62197;51.632;13.700;2023-12-04T04:46:06;19.33;;;8.52;;
73859;SDS011;62197;51.632;13.700;2023-12-04T04:48:31;17.27;;;7.22;;
73859;SDS011;62197;51.632;13.700;2023-12-04T04:50:56;18.83;;;8.98;;
73859;SDS011;62197;51.632;13.700;2023-12-04T04:53:22;17.60;;;7.88;;
73859;SDS011;62197;51.632;13.700;2023-12-04T04:55:47;22.20;;;8.18;;
73859;SDS011;62197;51.632;13.700;2023-12-04T04:58:13;23.10;;;10.23;;
73859;SDS011;62197;51.632;13.700;2023-12-04T05:00:38;22.05;;;8.82;;
73859;SDS011;62197;51.632;13.700;2023-12-04T05:03:03;23.35;;;10.07;;
73859;SDS011;62197;51.632;13.700;2023-12-04T05:05:29;21.30;;;9.63;;
73859;SDS011;62197;51.632;13.700;2023-12-04T05:07:54;17.83;;;8.05;;
73859;SDS011;62197;51.632;13.700;2023-12-04T05:10:19;19.67;;;8.80;;
73859;SDS011;62197;51.632;13.700;2023-12-04T05:12:45;24.60;;;9.13;;
73859;SDS011;62197;51.632;13.700;2023-12-04T05:15:10;23.23;;;9.52;;
73859;SDS011;62197;51.632;13.700;2023-12-04T05:17:35;19.83;;;8.98;;
73859;SDS011;62197;51.632;13.700;2023-12-04T05:20:01;22.50;;;8.35;;
73859;SDS011;62197;51.632;13.700;2023-12-04T05:22:26;18.65;;;8.65;;
73859;SDS011;62197;51.632;13.700;2023-12-04T05:24:51;20.63;;;9.90;;
73859;SDS011;62197;51.632;13.700;2023-12-04T05:27:17;20.27;;;9.27;;
73859;SDS011;62197;51.632;13.700;2023-12-04T05:29:42;26.10;;;9.55;;
73859;SDS011;62197;51.632;13.700;2023-12-04T05:32:07;18.15;;;7.25;;
73859;SDS011;62197;51.632;13.700;2023-12-04T05:34:33;25.02;;;10.00;;
73859;SDS011;62197;51.632;13.700;2023-12-04T05:36:58;22.52;;;9.07;;
73859;SDS011;62197;51.632;13.700;2023-12-04T05:39:23;20.10;;;9.10;;
73859;SDS011;62197;51.632;13.700;2023-12-04T05:41:49;19.90;;;9.32;;
73859;SDS011;62197;51.632;13.700;2023-12-04T05:44:14;19.17;;;8.82;;
73859;SDS011;62197;51.632;13.700;2023-12-04T05:46:39;23.83;;;9.18;;
73859;SDS011;62197;51.632;13.700;2023-12-04T05:49:05;21.58;;;9.25;;
73859;SDS011;62197;51.632;13.700;2023-12-04T05:51:30;26.42;;;10.20;;
73859;SDS011;62197;51.632;13.700;2023-12-04T05:53:56;24.70;;;9.98;;
73859;SDS011;62197;51.632;13.700;2023-12-04T05:56:21;19.25;;;7.50;;
73859;SDS011;62197;51.632;13.700;2023-12-04T05:58:46;21.67;;;8.13;;
73859;SDS011;62197;51.632;13.700;2023-12-04T06:01:12;32.58;;;11.15;;
73859;SDS011;62197;51.632;13.700;2023-12-04T06:03:37;27.95;;;10.13;;
73859;SDS011;62197;51.632;13.700;2023-12-04T06:06:02;28.88;;;9.18;;
73859;SDS011;62197;51.632;13.700;2023-12-04T06:08:28;23.83;;;10.48;;
73859;SDS011;62197;51.632;13.700;2023-12-04T06:10:54;21.60;;;8.77;;
73859;SDS011;62197;51.632;13.700;2023-12-04T06:13:19;21.60;;;8.77;;
73859;SDS011;62197;51.632;13.700;2023-12-04T06:15:44;22.63;;;8.85;;
73859;SDS011;62197;51.632;13.700;2023-12-04T06:18:10;17.38;;;8.18;;
73859;SDS011;62197;51.632;13.700;2023-12-04T06:20:35;20.02;;;8.23;;
73859;SDS011;62197;51.632;13.700;2023-12-04T06:23:00;19.05;;;9.25;;
73859;SDS011;62197;51.632;13.700;2023-12-04T06:25:26;20.90;;;8.00;;
73859;SDS011;62197;51.632;13.700;2023-12-04T06:27:51;21.40;;;8.32;;
73859;SDS011;62197;51.632;13.700;2023-12-04T06:30:17;26.70;;;9.98;;
73859;SDS011;62197;51.632;13.700;2023-12-04T06:32:43;18.25;;;7.57;;
73859;SDS011;62197;51.632;13.700;2023-12-04T06:35:09;21.10;;;8.02;;
73859;SDS011;62197;51.632;13.700;2023-12-04T06:37:35;20.08;;;7.85;;
73859;SDS011;62197;51.632;13.700;2023-12-04T06:40:03;17.05;;;7.00;;
73859;SDS011;62197;51.632;13.700;2023-12-04T06:42:29;15.80;;;7.30;;
73859;SDS011;62197;51.632;13.700;2023-12-04T06:44:54;14.80;;;7.15;;
73859;SDS011;62197;51.632;13.700;2023-12-04T06:47:22;17.17;;;7.13;;
73859;SDS011;62197;51.632;13.700;2023-12-04T06:49:48;19.60;;;8.25;;
73859;SDS011;62197;51.632;13.700;2023-12-04T06:52:13;19.13;;;7.43;;
73859;SDS011;62197;51.632;13.700;2023-12-04T06:54:39;16.42;;;7.65;;
73859;SDS011;62197;51.632;13.700;2023-12-04T06:57:04;14.32;;;6.88;;
73859;SDS011;62197;51.632;13.700;2023-12-04T06:59:29;22.17;;;9.15;;
73859;SDS011;62197;51.632;13.700;2023-12-04T07:01:55;16.30;;;6.10;;
73859;SDS011;62197;51.632;13.700;2023-12-04T07:04:20;19.70;;;7.15;;
73859;SDS011;62197;51.632;13.700;2023-12-04T07:06:47;15.93;;;7.35;;
73859;SDS011;62197;51.632;13.700;2023-12-04T07:11:38;14.85;;;6.72;;
73859;SDS011;62197;51.632;13.700;2023-12-04T07:14:04;12.75;;;6.72;;
73859;SDS011;62197;51.632;13.700;2023-12-04T07:16:29;16.92;;;7.47;;
73859;SDS011;62197;51.632;13.700;2023-12-04T07:18:55;14.50;;;6.15;;
73859;SDS011;62197;51.632;13.700;2023-12-04T07:21:20;16.85;;;7.78;;
73859;SDS011;62197;51.632;13.700;2023-12-04T07:23:46;14.57;;;6.53;;
73859;SDS011;62197;51.632;13.700;2023-12-04T07:26:11;16.35;;;7.03;;
73859;SDS011;62197;51.632;13.700;2023-12-04T07:28:37;19.15;;;8.75;;
73859;SDS011;62197;51.632;13.700;2023-12-04T07:31:02;17.70;;;7.43;;
73859;SDS011;62197;51.632;13.700;2023-12-04T07:33:28;12.45;;;6.40;;
73859;SDS011;62197;51.632;13.700;2023-12-04T07:35:54;16.40;;;6.43;;
73859;SDS011;62197;51.632;13.700;2023-12-04T07:38:19;15.82;;;6.50;;
73859;SDS011;62197;51.632;13.700;2023-12-04T07:40:44;14.10;;;6.50;;
73859;SDS011;62197;51.632;13.700;2023-12-04T07:43:10;10.88;;;4.65;;
73859;SDS011;62197;51.632;13.700;2023-12-04T07:45:35;15.10;;;6.53;;
73859;SDS011;62197;51.632;13.700;2023-12-04T07:48:02;13.27;;;5.60;;
73859;SDS011;62197;51.632;13.700;2023-12-04T07:50:30;14.70;;;5.95;;
73859;SDS011;62197;51.632;13.700;2023-12-04T07:52:56;17.27;;;7.53;;
73859;SDS011;62197;51.632;13.700;2023-12-04T07:55:21;14.10;;;6.20;;
73859;SDS011;62197;51.632;13.700;2023-12-04T07:57:46;14.95;;;6.75;;
73859;SDS011;62197;51.632;13.700;2023-12-04T08:00:13;12.93;;;5.15;;
73859;SDS011;62197;51.632;13.700;2023-12-04T08:02:39;12.48;;;6.25;;
73859;SDS011;62197;51.632;13.700;2023-12-04T08:05:04;14.75;;;6.07;;
73859;SDS011;62197;51.632;13.700;2023-12-04T08:07:30;13.50;;;6.32;;
73859;SDS011;62197;51.632;13.700;2023-12-04T08:09:55;13.75;;;6.10;;
73859;SDS011;62197;51.632;13.700;2023-12-04T08:12:20;15.93;;;5.88;;
73859;SDS011;62197;51.632;13.700;2023-12-04T08:14:46;12.68;;;6.07;;
73859;SDS011;62197;51.632;13.700;2023-12-04T08:17:11;13.48;;;4.93;;
73859;SDS011;62197;51.632;13.700;2023-12-04T08:19:37;12.35;;;5.28;;
73859;SDS011;62197;51.632;13.700;2023-12-04T08:22:02;12.95;;;5.60;;
73859;SDS011;62197;51.632;13.700;2023-12-04T08:24:28;5.82;;;3.13;;
73859;SDS011;62197;51.632;13.700;2023-12-04T08:26:53;14.05;;;5.40;;
73859;SDS011;62197;51.632;13.700;2023-12-04T08:29:19;11.95;;;5.00;;
73859;SDS011;62197;51.632;13.700;2023-12-04T08:31:44;10.32;;;5.03;;
73859;SDS011;62197;51.632;13.700;2023-12-04T08:34:09;10.23;;;5.22;;
73859;SDS011;62197;51.632;13.700;2023-12-04T08:36:35;12.95;;;4.95;;
73859;SDS011;62197;51.632;13.700;2023-12-04T08:39:00;10.82;;;5.78;;
73859;SDS011;62197;51.632;13.700;2023-12-04T08:41:26;10.63;;;5.00;;
73859;SDS011;62197;51.632;13.700;2023-12-04T08:43:53;13.20;;;5.05;;
73859;SDS011;62197;51.632;13.700;2023-12-04T08:48:45;8.30;;;4.43;;
73859;SDS011;62197;51.632;13.700;2023-12-04T08:51:15;11.45;;;4.57;;
73859;SDS011;62197;51.632;13.700;2023-12-04T08:53:41;9.48;;;3.83;;
73859;SDS011;62197;51.632;13.700;2023-12-04T08:56:07;11.05;;;5.28;;
73859;SDS011;62197;51.632;13.700;2023-12-04T08:58:33;11.48;;;4.88;;
73859;SDS011;62197;51.632;13.700;2023-12-04T09:00:58;8.30;;;3.85;;
73859;SDS011;62197;51.632;13.700;2023-12-04T09:03:23;8.50;;;4.18;;
73859;SDS011;62197;51.632;13.700;2023-12-04T09:05:49;15.07;;;3.90;;
73859;SDS011;62197;51.632;13.700;2023-12-04T09:08:16;11.05;;;4.45;;
73859;SDS011;62197;51.632;13.700;2023-12-04T09:10:42;9.52;;;4.28;;
73859;SDS011;62197;51.632;13.700;2023-12-04T09:13:07;10.70;;;4.25;;
73859;SDS011;62197;51.632;13.700;2023-12-04T09:15:33;10.35;;;4.63;;
73859;SDS011;62197;51.632;13.700;2023-12-04T09:17:58;12.48;;;4.55;;
73859;SDS011;62197;51.632;13.700;2023-12-04T09:20:24;12.45;;;4.85;;
73859;SDS011;62197;51.632;13.700;2023-12-04T09:22:50;9.13;;;4.03;;
73859;SDS011;62197;51.632;13.700;2023-12-04T09:25:16;9.80;;;3.92;;
73859;SDS011;62197;51.632;13.700;2023-12-04T09:27:41;10.70;;;5.00;;
73859;SDS011;62197;51.632;13.700;2023-12-04T09:30:07;9.57;;;4.85;;
73859;SDS011;62197;51.632;13.700;2023-12-04T09:32:32;10.15;;;4.75;;
73859;SDS011;62197;51.632;13.700;2023-12-04T09:34:58;8.52;;;4.07;;
73859;SDS011;62197;51.632;13.700;2023-12-04T09:37:23;9.52;;;4.50;;
73859;SDS011;62197;51.632;13.700;2023-12-04T09:39:49;10.38;;;4.78;;
73859;SDS011;62197;51.632;13.700;2023-12-04T09:42:14;8.65;;;4.50;;
73859;SDS011;62197;51.632;13.700;2023-12-04T09:44:42;10.63;;;4.75;;
73859;SDS011;62197;51.632;13.700;2023-12-04T09:47:08;9.60;;;4.57;;
73859;SDS011;62197;51.632;13.700;2023-12-04T09:49:35;7.80;;;3.88;;
73859;SDS011;62197;51.632;13.700;2023-12-04T09:52:01;9.35;;;4.53;;
73859;SDS011;62197;51.632;13.700;2023-12-04T09:54:27;6.20;;;3.30;;
73859;SDS011;62197;51.632;13.700;2023-12-04T09:56:54;9.13;;;4.13;;
73859;SDS011;62197;51.632;13.700;2023-12-04T09:59:20;9.13;;;4.25;;
73859;SDS011;62197;51.632;13.700;2023-12-04T10:01:49;8.27;;;3.80;;
73859;SDS011;62197;51.632;13.700;2023-12-04T10:06:41;8.85;;;3.85;;
73859;SDS011;62197;51.632;13.700;2023-12-04T10:09:09;7.03;;;3.53;;
73859;SDS011;62197;51.632;13.700;2023-12-04T10:11:41;10.32;;;4.28;;
73859;SDS011;62197;51.632;13.700;2023-12-04T10:14:16;10.25;;;4.53;;
73859;SDS011;62197;51.632;13.700;2023-12-04T10:16:45;8.60;;;4.60;;
73859;SDS011;62197;51.632;13.700;2023-12-04T10:19:18;9.18;;;4.40;;
73859;SDS011;62197;51.632;13.700;2023-12-04T10:21:45;9.70;;;4.97;;
73859;SDS011;62197;51.632;13.700;2023-12-04T10:24:12;8.02;;;4.10;;
73859;SDS011;62197;51.632;13.700;2023-12-04T10:26:41;10.82;;;4.68;;
73859;SDS011;62197;51.632;13.700;2023-12-04T10:29:15;7.20;;;4.18;;
73859;SDS011;62197;51.632;13.700;2023-12-04T10:31:40;10.27;;;4.90;;
73859;SDS011;62197;51.632;13.700;2023-12-04T10:34:06;11.02;;;4.72;;
73859;SDS011;62197;51.632;13.700;2023-12-04T10:36:34;8.60;;;4.35;;
73859;SDS011;62197;51.632;13.700;2023-12-04T10:41:26;8.23;;;3.30;;
73859;SDS011;62197;51.632;13.700;2023-12-04T10:43:52;8.80;;;4.60;;
73859;SDS011;62197;51.632;13.700;2023-12-04T10:46:18;9.65;;;4.50;;
73859;SDS011;62197;51.632;13.700;2023-12-04T10:48:47;9.45;;;4.78;;
73859;SDS011;62197;51.632;13.700;2023-12-04T10:51:12;8.18;;;3.95;;
73859;SDS011;62197;51.632;13.700;2023-12-04T10:53:40;7.55;;;3.80;;
73859;SDS011;62197;51.632;13.700;2023-12-04T10:56:09;9.10;;;4.30;;
73859;SDS011;62197;51.632;13.700;2023-12-04T10:58:39;9.32;;;3.92;;
73859;SDS011;62197;51.632;13.700;2023-12-04T11:01:06;8.85;;;3.95;;
73859;SDS011;62197;51.632;13.700;2023-12-04T11:03:52;9.00;;;4.53;;
73859;SDS011;62197;51.632;13.700;2023-12-04T11:06:21;8.48;;;4.45;;
73859;SDS011;62197;51.632;13.700;2023-12-04T11:08:48;7.45;;;3.95;;
73859;SDS011;62197;51.632;13.700;2023-12-04T11:11:19;9.50;;;4.85;;
73859;SDS011;62197;51.632;13.700;2023-12-04T11:13:52;7.60;;;3.80;;
73859;SDS011;62197;51.632;13.700;2023-12-04T11:19:11;9.60;;;4.72;;
73859;SDS011;62197;51.632;13.700;2023-12-04T11:21:45;8.80;;;4.53;;
73859;SDS011;62197;51.632;13.700;2023-12-04T11:24:13;9.07;;;4.78;;
73859;SDS011;62197;51.632;13.700;2023-12-04T11:26:40;15.27;;;4.45;;
73859;SDS011;62197;51.632;13.700;2023-12-04T11:29:06;8.40;;;4.32;;
73859;SDS011;62197;51.632;13.700;2023-12-04T11:31:34;9.10;;;3.78;;
73859;SDS011;62197;51.632;13.700;2023-12-04T11:34:01;9.55;;;4.22;;
73859;SDS011;62197;51.632;13.700;2023-12-04T11:36:28;9.73;;;4.47;;
73859;SDS011;62197;51.632;13.700;2023-12-04T11:38:53;11.25;;;4.63;;
73859;SDS011;62197;51.632;13.700;2023-12-04T11:41:19;11.18;;;5.05;;
73859;SDS011;62197;51.632;13.700;2023-12-04T11:43:46;8.88;;;4.05;;
73859;SDS011;62197;51.632;13.700;2023-12-04T11:46:23;10.27;;;5.20;;
73859;SDS011;62197;51.632;13.700;2023-12-04T11:48:50;11.88;;;4.70;;
73859;SDS011;62197;51.632;13.700;2023-12-04T11:54:14;7.70;;;3.45;;
73859;SDS011;62197;51.632;13.700;2023-12-04T11:56:41;11.45;;;5.10;;
73859;SDS011;62197;51.632;13.700;2023-12-04T11:59:21;10.95;;;4.72;;
73859;SDS011;62197;51.632;13.700;2023-12-04T12:01:46;10.93;;;4.82;;
73859;SDS011;62197;51.632;13.700;2023-12-04T12:04:16;9.70;;;4.35;;
73859;SDS011;62197;51.632;13.700;2023-12-04T12:06:43;10.45;;;4.05;;
73859;SDS011;62197;51.632;13.700;2023-12-04T12:09:09;8.35;;;3.90;;
73859;SDS011;62197;51.632;13.700;2023-12-04T12:11:34;12.50;;;5.45;;
73859;SDS011;62197;51.632;13.700;2023-12-04T12:14:00;9.05;;;4.75;;
73859;SDS011;62197;51.632;13.700;2023-12-04T12:16:26;12.10;;;4.70;;
73859;SDS011;62197;51.632;13.700;2023-12-04T12:18:51;9.45;;;4.35;;
73859;SDS011;62197;51.632;13.700;2023-12-04T12:21:17;9.95;;;4.45;;
73859;SDS011;62197;51.632;13.700;2023-12-04T12:23:42;9.52;;;3.88;;
73859;SDS011;62197;51.632;13.700;2023-12-04T12:26:08;9.95;;;4.28;;
73859;SDS011;62197;51.632;13.700;2023-12-04T12:28:34;9.52;;;4.00;;
73859;SDS011;62197;51.632;13.700;2023-12-04T12:31:03;11.38;;;4.38;;
73859;SDS011;62197;51.632;13.700;2023-12-04T12:33:28;9.70;;;4.65;;
73859;SDS011;62197;51.632;13.700;2023-12-04T12:35:54;8.93;;;4.15;;
73859;SDS011;62197;51.632;13.700;2023-12-04T12:38:20;10.80;;;4.70;;
73859;SDS011;62197;51.632;13.700;2023-12-04T12:40:45;11.48;;;4.75;;
73859;SDS011;62197;51.632;13.700;2023-12-04T12:43:11;11.20;;;5.18;;
73859;SDS011;62197;51.632;13.700;2023-12-04T12:45:40;14.93;;;5.72;;
73859;SDS011;62197;51.632;13.700;2023-12-04T12:48:05;12.30;;;5.15;;
73859;SDS011;62197;51.632;13.700;2023-12-04T12:50:34;11.43;;;4.75;;
73859;SDS011;62197;51.632;13.700;2023-12-04T12:53:01;11.13;;;5.32;;
73859;SDS011;62197;51.632;13.700;2023-12-04T12:55:27;9.65;;;5.07;;
73859;SDS011;62197;51.632;13.700;2023-12-04T12:57:52;11.13;;;4.95;;
73859;SDS011;62197;51.632;13.700;2023-12-04T13:00:20;9.68;;;4.68;;
73859;SDS011;62197;51.632;13.700;2023-12-04T13:02:46;7.90;;;4.28;;
73859;SDS011;62197;51.632;13.700;2023-12-04T13:05:11;12.88;;;5.55;;
73859;SDS011;62197;51.632;13.700;2023-12-04T13:07:36;12.07;;;5.25;;
73859;SDS011;62197;51.632;13.700;2023-12-04T13:10:02;11.65;;;4.82;;
73859;SDS011;62197;51.632;13.700;2023-12-04T13:12:30;10.52;;;5.07;;
73859;SDS011;62197;51.632;13.700;2023-12-04T13:14:55;10.95;;;4.85;;
73859;SDS011;62197;51.632;13.700;2023-12-04T13:17:21;13.25;;;4.97;;
73859;SDS011;62197;51.632;13.700;2023-12-04T13:19:46;10.18;;;4.85;;
73859;SDS011;62197;51.632;13.700;2023-12-04T13:22:11;9.60;;;5.65;;
73859;SDS011;62197;51.632;13.700;2023-12-04T13:24:37;12.88;;;6.07;;
73859;SDS011;62197;51.632;13.700;2023-12-04T13:27:02;9.77;;;5.18;;
73859;SDS011;62197;51.632;13.700;2023-12-04T13:29:27;9.23;;;4.55;;
73859;SDS011;62197;51.632;13.700;2023-12-04T13:31:53;10.02;;;4.47;;
73859;SDS011;62197;51.632;13.700;2023-12-04T13:34:18;9.27;;;4.90;;
73859;SDS011;62197;51.632;13.700;2023-12-04T13:36:44;11.15;;;5.35;;
73859;SDS011;62197;51.632;13.700;2023-12-04T13:39:09;10.48;;;4.70;;
73859;SDS011;62197;51.632;13.700;2023-12-04T13:42:06;10.18;;;4.65;;
73859;SDS011;62197;51.632;13.700;2023-12-04T13:44:50;12.82;;;5.30;;
73859;SDS011;62197;51.632;13.700;2023-12-04T13:47:16;13.65;;;5.07;;
73859;SDS011;62197;51.632;13.700;2023-12-04T13:49:42;9.73;;;4.25;;
73859;SDS011;62197;51.632;13.700;2023-12-04T13:52:11;8.18;;;4.20;;
73859;SDS011;62197;51.632;13.700;2023-12-04T13:54:36;10.40;;;5.22;;
73859;SDS011;62197;51.632;13.700;2023-12-04T13:57:13;11.38;;;5.63;;
73859;SDS011;62197;51.632;13.700;2023-12-04T13:59:53;12.30;;;4.60;;
73859;SDS011;62197;51.632;13.700;2023-12-04T14:02:22;10.65;;;5.00;;
73859;SDS011;62197;51.632;13.700;2023-12-04T14:04:47;11.50;;;4.90;;
73859;SDS011;62197;51.632;13.700;2023-12-04T14:07:13;10.63;;;4.85;;
73859;SDS011;62197;51.632;13.700;2023-12-04T14:09:39;11.80;;;5.05;;
73859;SDS011;62197;51.632;13.700;2023-12-04T14:12:04;10.40;;;4.88;;
73859;SDS011;62197;51.632;13.700;2023-12-04T14:14:30;11.23;;;5.25;;
73859;SDS011;62197;51.632;13.700;2023-12-04T14:16:56;9.93;;;5.15;;
73859;SDS011;62197;51.632;13.700;2023-12-04T14:19:21;9.38;;;4.95;;
73859;SDS011;62197;51.632;13.700;2023-12-04T14:21:47;11.60;;;4.93;;
73859;SDS011;62197;51.632;13.700;2023-12-04T14:24:15;13.80;;;5.95;;
73859;SDS011;62197;51.632;13.700;2023-12-04T14:26:41;11.85;;;5.60;;
73859;SDS011;62197;51.632;13.700;2023-12-04T14:29:07;12.27;;;4.50;;
73859;SDS011;62197;51.632;13.700;2023-12-04T14:31:33;8.80;;;4.60;;
73859;SDS011;62197;51.632;13.700;2023-12-04T14:33:59;11.70;;;5.70;;